Sunday, August 19, 2018, 12:27 AM GMT
Back to Local

CWFQ, Frelighsburg

Location: , , Canada Lat: 45.05
Local Time: 12:27 AM GMT ( 0:27 GMT) Lon: -72.833
Time Zone: GMT Elev: 498 ft

Show me the last for .
Show Coded

Time T Td Feel RH Dir Speed Gust Alt SLP Vis Weather Sky Remarks
2018-08-19 00:00 66 61 - 83 350° 3 - - 29.93 0 None
2018-08-18 23:00 68 61 - 77 360° 2 - - 29.92 0 None
2018-08-18 22:00 71 60 76 68 360° 7 - - 29.91 0 None
2018-08-18 21:00 71 60 76 67 360° 9 - - 29.90 0 None
2018-08-18 20:00 70 60 76 69 10° 10 - - 29.90 0 None
2018-08-18 19:00 69 61 - 75 360° 8 - - 29.89 0 None
2018-08-18 18:00 68 61 - 79 10° 7 - - 29.90 0 None
2018-08-18 17:00 66 60 - 81 360° 8 - - 29.89 0 None
2018-08-18 16:00 64 61 - 90 360° 7 - - 29.89 0 None
2018-08-18 15:00 61 59 - 92 350° 6 - - 29.90 0 None
2018-08-18 14:00 61 59 - 95 350° 6 - - 29.89 0 None
2018-08-18 13:00 60 59 - 97 350° 10 - - 29.88 0 None
2018-08-18 12:00 59 59 - 97 10° 8 - - 29.87 0 None
2018-08-18 11:00 60 59 - 98 360° 10 17 - 29.86 0 None
2018-08-18 10:00 61 60 - 99 340° 8 - - 29.84 0 1-hr Precip Total: 0.01"
2018-08-18 09:00 62 62 - 98 340° 6 - - 29.83 0 1-hr Precip Total: 0.01"
2018-08-18 08:00 62 60 - 93 330° 7 - - 29.82 0 None
2018-08-18 07:00 62 62 - 98 340° 8 - - 29.81 0 None
2018-08-18 06:00 64 63 - 98 350° 7 - - 29.80 0 None
2018-08-18 05:00 65 65 - 98 350° 7 - - 29.81 0 None
2018-08-18 04:00 71 71 76 97 210° 3 - - 29.80 0 None
2018-08-18 03:00 70 69 76 96 170° 2 - - 29.81 0 None
2018-08-18 02:00 71 69 76 95 180° 3 - - 29.82 0 None
2018-08-18 01:00 70 68 - 95 160° 5 - - 29.83 0 None

Support USWX by starting your Amazon purchase here.